sensor_id;sensor_type;location;lat;lon;timestamp;pressure;altitude;pressure_sealevel;temperature;humidity
52469;BME280;38381;53.688;10.776;2022-10-17T00:00:49;101733.06;;;10.21;86.91
52469;BME280;38381;53.688;10.776;2022-10-17T00:05:50;101741.13;;;10.32;86.99
52469;BME280;38381;53.688;10.776;2022-10-17T00:10:57;101732.47;;;10.31;87.48
52469;BME280;38381;53.688;10.776;2022-10-17T00:15:58;101718.72;;;10.34;88.44
52469;BME280;38381;53.688;10.776;2022-10-17T00:20:58;101704.97;;;10.38;89.56
52469;BME280;38381;53.688;10.776;2022-10-17T00:26:01;101686.06;;;10.42;89.63
52469;BME280;38381;53.688;10.776;2022-10-17T00:31:04;101692.28;;;10.52;89.22
52469;BME280;38381;53.688;10.776;2022-10-17T00:36:08;101710.63;;;10.59;89.62
52469;BME280;38381;53.688;10.776;2022-10-17T00:41:11;101715.13;;;10.68;91.22
52469;BME280;38381;53.688;10.776;2022-10-17T00:46:12;101709.09;;;10.69;91.33
52469;BME280;38381;53.688;10.776;2022-10-17T00:51:13;101725.66;;;10.76;90.62
52469;BME280;38381;53.688;10.776;2022-10-17T00:56:15;101724.84;;;10.77;90.80
52469;BME280;38381;53.688;10.776;2022-10-17T01:01:16;101714.50;;;10.80;90.84
52469;BME280;38381;53.688;10.776;2022-10-17T01:06:16;101725.03;;;10.86;89.88
52469;BME280;38381;53.688;10.776;2022-10-17T01:17:00;101728.69;;;10.96;90.29
52469;BME280;38381;53.688;10.776;2022-10-17T01:22:15;101745.22;;;11.01;90.43
52469;BME280;38381;53.688;10.776;2022-10-17T01:27:41;101743.59;;;11.06;91.95
52469;BME280;38381;53.688;10.776;2022-10-17T01:38:33;101737.66;;;11.12;91.05
52469;BME280;38381;53.688;10.776;2022-10-17T01:43:40;101729.97;;;11.16;90.68
52469;BME280;38381;53.688;10.776;2022-10-17T01:48:44;101728.31;;;11.20;90.49
52469;BME280;38381;53.688;10.776;2022-10-17T01:54:24;101730.09;;;11.22;91.23
52469;BME280;38381;53.688;10.776;2022-10-17T01:59:40;101721.53;;;11.28;91.88
52469;BME280;38381;53.688;10.776;2022-10-17T02:04:41;101723.34;;;11.32;91.28
52469;BME280;38381;53.688;10.776;2022-10-17T02:09:42;101717.38;;;11.36;91.28
52469;BME280;38381;53.688;10.776;2022-10-17T02:25:36;101720.16;;;11.47;90.54
52469;BME280;38381;53.688;10.776;2022-10-17T02:31:23;101712.44;;;11.52;90.73
52469;BME280;38381;53.688;10.776;2022-10-17T02:36:25;101708.19;;;11.55;90.84
52469;BME280;38381;53.688;10.776;2022-10-17T02:41:28;101703.09;;;11.61;91.17
52469;BME280;38381;53.688;10.776;2022-10-17T02:46:30;101705.75;;;11.66;90.76
52469;BME280;38381;53.688;10.776;2022-10-17T02:51:42;101700.63;;;11.69;90.35
52469;BME280;38381;53.688;10.776;2022-10-17T02:57:15;101701.53;;;11.71;90.72
52469;BME280;38381;53.688;10.776;2022-10-17T03:02:18;101686.88;;;11.76;90.68
52469;BME280;38381;53.688;10.776;2022-10-17T03:07:18;101699.97;;;11.82;90.27
52469;BME280;38381;53.688;10.776;2022-10-17T03:12:19;101683.56;;;11.86;90.97
52469;BME280;38381;53.688;10.776;2022-10-17T03:17:19;101681.06;;;11.91;91.00
52469;BME280;38381;53.688;10.776;2022-10-17T03:22:20;101666.56;;;12.05;90.04
52469;BME280;38381;53.688;10.776;2022-10-17T03:27:20;101658.88;;;12.13;89.86
52469;BME280;38381;53.688;10.776;2022-10-17T03:32:20;101652.00;;;12.17;89.24
52469;BME280;38381;53.688;10.776;2022-10-17T03:37:21;101655.47;;;12.17;89.16
52469;BME280;38381;53.688;10.776;2022-10-17T03:42:22;101645.41;;;12.42;87.85
52469;BME280;38381;53.688;10.776;2022-10-17T03:47:23;101654.97;;;12.43;87.34
52469;BME280;38381;53.688;10.776;2022-10-17T03:52:23;101662.81;;;12.47;86.88
52469;BME280;38381;53.688;10.776;2022-10-17T03:57:23;101644.56;;;12.43;87.28
52469;BME280;38381;53.688;10.776;2022-10-17T04:02:24;101641.94;;;12.44;87.23
52469;BME280;38381;53.688;10.776;2022-10-17T04:07:24;101642.03;;;12.51;86.72
52469;BME280;38381;53.688;10.776;2022-10-17T04:12:25;101632.47;;;12.48;86.70
52469;BME280;38381;53.688;10.776;2022-10-17T04:17:25;101629.78;;;12.42;86.65
52469;BME280;38381;53.688;10.776;2022-10-17T04:22:26;101631.53;;;12.41;86.45
52469;BME280;38381;53.688;10.776;2022-10-17T04:27:26;101623.66;;;12.37;86.62
52469;BME280;38381;53.688;10.776;2022-10-17T04:32:27;101622.72;;;12.32;86.64
52469;BME280;38381;53.688;10.776;2022-10-17T04:37:28;101627.88;;;12.27;86.83
52469;BME280;38381;53.688;10.776;2022-10-17T04:42:29;101617.38;;;12.21;87.10
52469;BME280;38381;53.688;10.776;2022-10-17T04:47:29;101606.91;;;12.15;87.08
52469;BME280;38381;53.688;10.776;2022-10-17T04:52:30;101601.66;;;12.13;87.21
52469;BME280;38381;53.688;10.776;2022-10-17T04:57:34;101588.63;;;12.08;87.06
52469;BME280;38381;53.688;10.776;2022-10-17T05:02:34;101603.34;;;12.10;87.38
52469;BME280;38381;53.688;10.776;2022-10-17T05:07:38;101592.06;;;12.06;87.03
52469;BME280;38381;53.688;10.776;2022-10-17T05:12:39;101604.25;;;12.12;86.95
52469;BME280;38381;53.688;10.776;2022-10-17T05:17:39;101603.34;;;12.08;86.76
52469;BME280;38381;53.688;10.776;2022-10-17T05:22:40;101596.44;;;12.10;86.77
52469;BME280;38381;53.688;10.776;2022-10-17T05:27:40;101589.44;;;12.07;86.78
52469;BME280;38381;53.688;10.776;2022-10-17T05:32:41;101587.81;;;12.14;86.45
52469;BME280;38381;53.688;10.776;2022-10-17T05:37:41;101585.19;;;12.13;86.18
52469;BME280;38381;53.688;10.776;2022-10-17T05:42:46;101585.16;;;12.08;86.68
52469;BME280;38381;53.688;10.776;2022-10-17T05:47:47;101585.88;;;11.98;87.22
52469;BME280;38381;53.688;10.776;2022-10-17T05:52:51;101581.56;;;12.00;87.09
52469;BME280;38381;53.688;10.776;2022-10-17T05:57:52;101591.84;;;11.92;87.72
52469;BME280;38381;53.688;10.776;2022-10-17T06:02:53;101595.38;;;11.96;87.68
52469;BME280;38381;53.688;10.776;2022-10-17T06:07:53;101597.09;;;11.97;87.96
52469;BME280;38381;53.688;10.776;2022-10-17T06:12:54;101591.06;;;11.98;87.81
52469;BME280;38381;53.688;10.776;2022-10-17T06:17:54;101579.13;;;12.12;87.73
52469;BME280;38381;53.688;10.776;2022-10-17T06:22:54;101586.94;;;12.12;87.28
52469;BME280;38381;53.688;10.776;2022-10-17T06:27:55;101588.78;;;12.21;87.50
52469;BME280;38381;53.688;10.776;2022-10-17T06:32:55;101586.22;;;12.25;88.43
52469;BME280;38381;53.688;10.776;2022-10-17T06:37:56;101592.38;;;12.31;88.21
52469;BME280;38381;53.688;10.776;2022-10-17T06:42:56;101594.06;;;12.30;88.64
52469;BME280;38381;53.688;10.776;2022-10-17T06:47:57;101592.44;;;12.37;89.09
52469;BME280;38381;53.688;10.776;2022-10-17T06:52:58;101592.41;;;12.34;89.55
52469;BME280;38381;53.688;10.776;2022-10-17T06:57:58;101592.69;;;12.55;89.05
52469;BME280;38381;53.688;10.776;2022-10-17T07:02:58;101590.00;;;12.51;89.40
52469;BME280;38381;53.688;10.776;2022-10-17T07:07:59;101591.81;;;12.58;89.54
52469;BME280;38381;53.688;10.776;2022-10-17T07:12:59;101587.56;;;12.64;89.91
52469;BME280;38381;53.688;10.776;2022-10-17T07:18:00;101580.03;;;12.94;89.66
52469;BME280;38381;53.688;10.776;2022-10-17T07:23:01;101585.41;;;13.07;89.59
52469;BME280;38381;53.688;10.776;2022-10-17T07:28:01;101590.06;;;13.41;89.01
52469;BME280;38381;53.688;10.776;2022-10-17T07:33:02;101588.38;;;13.47;88.59
52469;BME280;38381;53.688;10.776;2022-10-17T07:38:02;101586.94;;;13.89;87.71
52469;BME280;38381;53.688;10.776;2022-10-17T07:43:02;101587.81;;;13.96;87.64
52469;BME280;38381;53.688;10.776;2022-10-17T07:48:03;101593.06;;;13.98;87.92
52469;BME280;38381;53.688;10.776;2022-10-17T07:53:04;101596.59;;;14.07;88.55
52469;BME280;38381;53.688;10.776;2022-10-17T07:58:04;101608.91;;;14.36;87.71
52469;BME280;38381;53.688;10.776;2022-10-17T08:03:05;101589.91;;;14.65;86.30
52469;BME280;38381;53.688;10.776;2022-10-17T08:08:06;101582.13;;;14.79;85.80
52469;BME280;38381;53.688;10.776;2022-10-17T08:13:06;101585.63;;;14.99;84.71
52469;BME280;38381;53.688;10.776;2022-10-17T08:18:06;101584.75;;;15.11;84.35
52469;BME280;38381;53.688;10.776;2022-10-17T08:23:07;101588.25;;;15.27;84.40
52469;BME280;38381;53.688;10.776;2022-10-17T08:28:07;101589.16;;;15.44;83.89
52469;BME280;38381;53.688;10.776;2022-10-17T08:33:08;101569.09;;;15.31;84.90
52469;BME280;38381;53.688;10.776;2022-10-17T08:38:08;101576.91;;;15.83;83.53
52469;BME280;38381;53.688;10.776;2022-10-17T08:43:18;101573.41;;;15.84;83.50
52469;BME280;38381;53.688;10.776;2022-10-17T08:48:24;101575.09;;;16.10;82.91
52469;BME280;38381;53.688;10.776;2022-10-17T08:53:37;101561.03;;;16.36;83.05
52469;BME280;38381;53.688;10.776;2022-10-17T08:58:38;101557.53;;;16.37;83.07
52469;BME280;38381;53.688;10.776;2022-10-17T09:09:30;101562.50;;;16.89;82.27
52469;BME280;38381;53.688;10.776;2022-10-17T09:20:11;101558.03;;;17.06;81.52
52469;BME280;38381;53.688;10.776;2022-10-17T09:25:16;101538.81;;;17.04;81.69
52469;BME280;38381;53.688;10.776;2022-10-17T09:35:45;101525.50;;;17.29;81.87
52469;BME280;38381;53.688;10.776;2022-10-17T09:40:56;101527.72;;;17.67;80.06
52469;BME280;38381;53.688;10.776;2022-10-17T09:51:08;101549.78;;;18.28;78.85
52469;BME280;38381;53.688;10.776;2022-10-17T09:56:14;101545.19;;;18.46;77.79
52469;BME280;38381;53.688;10.776;2022-10-17T10:06:18;101581.41;;;18.86;76.21
52469;BME280;38381;53.688;10.776;2022-10-17T10:11:25;101572.25;;;18.51;76.48
52469;BME280;38381;53.688;10.776;2022-10-17T10:16:30;101569.44;;;18.63;76.93
52469;BME280;38381;53.688;10.776;2022-10-17T10:21:31;101563.88;;;18.86;76.91
52469;BME280;38381;53.688;10.776;2022-10-17T10:26:41;101559.44;;;18.92;76.30
52469;BME280;38381;53.688;10.776;2022-10-17T10:31:43;101563.84;;;18.89;76.53
52469;BME280;38381;53.688;10.776;2022-10-17T10:37:20;101571.38;;;19.11;76.32
52469;BME280;38381;53.688;10.776;2022-10-17T10:42:28;101567.38;;;19.43;74.61
52469;BME280;38381;53.688;10.776;2022-10-17T10:47:30;101568.03;;;19.54;74.48
52469;BME280;38381;53.688;10.776;2022-10-17T10:53:02;101561.59;;;19.72;74.41
52469;BME280;38381;53.688;10.776;2022-10-17T10:58:00;101564.09;;;19.80;74.02
52469;BME280;38381;53.688;10.776;2022-10-17T11:03:14;101568.50;;;19.79;75.44
52469;BME280;38381;53.688;10.776;2022-10-17T11:08:26;101563.25;;;19.79;74.23
52469;BME280;38381;53.688;10.776;2022-10-17T11:13:52;101570.78;;;19.98;73.68
52469;BME280;38381;53.688;10.776;2022-10-17T11:18:58;101563.88;;;19.90;74.65
52469;BME280;38381;53.688;10.776;2022-10-17T11:24:08;101556.09;;;19.84;74.28
52469;BME280;38381;53.688;10.776;2022-10-17T11:29:11;101566.50;;;19.92;74.50
52469;BME280;38381;53.688;10.776;2022-10-17T11:34:25;101572.84;;;19.80;75.02
52469;BME280;38381;53.688;10.776;2022-10-17T11:39:32;101578.19;;;19.77;75.59
52469;BME280;38381;53.688;10.776;2022-10-17T11:44:38;101581.44;;;19.92;74.80
52469;BME280;38381;53.688;10.776;2022-10-17T11:49:45;101570.13;;;19.85;75.34
52469;BME280;38381;53.688;10.776;2022-10-17T11:54:53;101583.50;;;19.74;75.92
52469;BME280;38381;53.688;10.776;2022-10-17T12:00:10;101570.41;;;19.69;75.75
52469;BME280;38381;53.688;10.776;2022-10-17T12:05:27;101565.97;;;19.73;75.44
52469;BME280;38381;53.688;10.776;2022-10-17T12:21:52;101533.25;;;19.86;74.80
52469;BME280;38381;53.688;10.776;2022-10-17T12:26:54;101522.50;;;19.97;74.94
52469;BME280;38381;53.688;10.776;2022-10-17T12:32:09;101529.66;;;19.90;75.46
52469;BME280;38381;53.688;10.776;2022-10-17T12:37:10;101533.91;;;19.98;75.33
52469;BME280;38381;53.688;10.776;2022-10-17T12:42:31;101538.63;;;19.80;75.83
52469;BME280;38381;53.688;10.776;2022-10-17T12:47:37;101562.69;;;20.05;75.28
52469;BME280;38381;53.688;10.776;2022-10-17T12:57:58;101563.84;;;19.94;76.17
52469;BME280;38381;53.688;10.776;2022-10-17T13:03:13;101560.13;;;20.04;75.91
52469;BME280;38381;53.688;10.776;2022-10-17T13:08:20;101577.97;;;19.88;76.10
52469;BME280;38381;53.688;10.776;2022-10-17T13:13:44;101585.56;;;20.03;75.80
52469;BME280;38381;53.688;10.776;2022-10-17T13:18:51;101590.69;;;20.11;75.80
52469;BME280;38381;53.688;10.776;2022-10-17T13:23:52;101601.59;;;19.91;76.75
52469;BME280;38381;53.688;10.776;2022-10-17T13:29:05;101611.22;;;19.94;76.53
52469;BME280;38381;53.688;10.776;2022-10-17T13:34:14;101623.97;;;20.14;76.28
52469;BME280;38381;53.688;10.776;2022-10-17T13:39:20;101628.34;;;20.16;75.93
52469;BME280;38381;53.688;10.776;2022-10-17T13:44:24;101633.53;;;20.19;76.05
52469;BME280;38381;53.688;10.776;2022-10-17T13:49:33;101667.63;;;20.27;75.67
52469;BME280;38381;53.688;10.776;2022-10-17T13:54:42;101658.22;;;20.14;76.69
52469;BME280;38381;53.688;10.776;2022-10-17T13:59:43;101602.41;;;19.95;77.37
52469;BME280;38381;53.688;10.776;2022-10-17T14:05:19;101625.47;;;19.83;78.48
52469;BME280;38381;53.688;10.776;2022-10-17T14:10:22;101644.75;;;19.82;79.23
52469;BME280;38381;53.688;10.776;2022-10-17T14:15:27;101666.00;;;19.70;79.85
52469;BME280;38381;53.688;10.776;2022-10-17T14:20:28;101687.34;;;19.52;80.34
52469;BME280;38381;53.688;10.776;2022-10-17T14:25:36;101717.34;;;19.41;81.28
52469;BME280;38381;53.688;10.776;2022-10-17T14:30:45;101680.81;;;19.21;82.77
52469;BME280;38381;53.688;10.776;2022-10-17T14:35:50;101671.16;;;19.22;82.93
52469;BME280;38381;53.688;10.776;2022-10-17T14:40:58;101685.59;;;18.93;85.15
52469;BME280;38381;53.688;10.776;2022-10-17T14:46:03;101642.81;;;18.82;85.44
52469;BME280;38381;53.688;10.776;2022-10-17T14:51:22;101626.31;;;18.70;86.27
52469;BME280;38381;53.688;10.776;2022-10-17T14:56:27;101640.28;;;18.73;86.49
52469;BME280;38381;53.688;10.776;2022-10-17T15:01:33;101630.88;;;18.55;87.38
52469;BME280;38381;53.688;10.776;2022-10-17T15:06:33;101631.78;;;18.52;87.41
52469;BME280;38381;53.688;10.776;2022-10-17T15:11:34;101654.47;;;18.59;87.78
52469;BME280;38381;53.688;10.776;2022-10-17T15:16:35;101680.88;;;18.47;88.40
52469;BME280;38381;53.688;10.776;2022-10-17T15:21:36;101687.97;;;18.37;89.27
52469;BME280;38381;53.688;10.776;2022-10-17T15:26:36;101701.16;;;18.33;89.45
52469;BME280;38381;53.688;10.776;2022-10-17T15:31:37;101721.50;;;18.15;90.72
52469;BME280;38381;53.688;10.776;2022-10-17T15:36:39;101732.84;;;18.17;90.59
52469;BME280;38381;53.688;10.776;2022-10-17T15:41:40;101742.50;;;18.14;90.95
52469;BME280;38381;53.688;10.776;2022-10-17T15:46:41;101740.72;;;18.17;90.79
52469;BME280;38381;53.688;10.776;2022-10-17T15:51:42;101752.19;;;18.07;91.07
52469;BME280;38381;53.688;10.776;2022-10-17T15:56:47;101760.13;;;17.98;91.87
52469;BME280;38381;53.688;10.776;2022-10-17T16:01:49;101765.44;;;17.95;91.79
52469;BME280;38381;53.688;10.776;2022-10-17T16:06:49;101765.38;;;17.96;92.15
52469;BME280;38381;53.688;10.776;2022-10-17T16:11:50;101771.59;;;17.91;91.83
52469;BME280;38381;53.688;10.776;2022-10-17T16:16:50;101782.97;;;17.86;92.48
52469;BME280;38381;53.688;10.776;2022-10-17T16:21:51;101773.34;;;17.85;92.51
52469;BME280;38381;53.688;10.776;2022-10-17T16:26:52;101765.53;;;17.73;93.18
52469;BME280;38381;53.688;10.776;2022-10-17T16:31:52;101776.91;;;17.75;93.43
52469;BME280;38381;53.688;10.776;2022-10-17T16:36:53;101787.47;;;17.66;93.71
52469;BME280;38381;53.688;10.776;2022-10-17T16:41:53;101793.59;;;17.66;93.27
52469;BME280;38381;53.688;10.776;2022-10-17T16:46:54;101801.44;;;17.68;93.31
52469;BME280;38381;53.688;10.776;2022-10-17T16:51:54;101809.31;;;17.63;93.50
52469;BME280;38381;53.688;10.776;2022-10-17T16:56:55;101812.00;;;17.53;93.87
52469;BME280;38381;53.688;10.776;2022-10-17T17:01:58;101804.16;;;17.54;93.28
52469;BME280;38381;53.688;10.776;2022-10-17T17:06:59;101813.84;;;17.41;93.62
52469;BME280;38381;53.688;10.776;2022-10-17T17:11:59;101816.47;;;17.41;93.26
52469;BME280;38381;53.688;10.776;2022-10-17T17:16:59;101826.06;;;17.42;92.45
52469;BME280;38381;53.688;10.776;2022-10-17T17:22:00;101827.88;;;17.29;92.76
52469;BME280;38381;53.688;10.776;2022-10-17T17:27:00;101835.72;;;17.33;92.87
52469;BME280;38381;53.688;10.776;2022-10-17T17:32:01;101823.53;;;17.25;93.18
52469;BME280;38381;53.688;10.776;2022-10-17T17:37:01;101833.97;;;17.30;92.79
52469;BME280;38381;53.688;10.776;2022-10-17T17:42:02;101843.63;;;17.25;93.41
52469;BME280;38381;53.688;10.776;2022-10-17T17:47:03;101841.81;;;17.36;92.69
52469;BME280;38381;53.688;10.776;2022-10-17T17:52:04;101842.75;;;17.27;93.03
52469;BME280;38381;53.688;10.776;2022-10-17T17:57:04;101845.41;;;17.17;93.93
52469;BME280;38381;53.688;10.776;2022-10-17T18:02:05;101848.91;;;17.19;93.58
52469;BME280;38381;53.688;10.776;2022-10-17T18:07:06;101864.66;;;17.02;94.85
52469;BME280;38381;53.688;10.776;2022-10-17T18:12:06;101870.78;;;17.07;94.78
52469;BME280;38381;53.688;10.776;2022-10-17T18:17:06;101876.84;;;17.14;94.34
52469;BME280;38381;53.688;10.776;2022-10-17T18:22:07;101876.91;;;17.04;94.65
52469;BME280;38381;53.688;10.776;2022-10-17T18:27:08;101877.72;;;17.16;94.24
52469;BME280;38381;53.688;10.776;2022-10-17T18:32:09;101868.13;;;17.12;94.91
52469;BME280;38381;53.688;10.776;2022-10-17T18:37:09;101867.31;;;16.91;95.95
52469;BME280;38381;53.688;10.776;2022-10-17T18:42:09;101880.38;;;17.02;95.41
52469;BME280;38381;53.688;10.776;2022-10-17T18:47:11;101889.13;;;17.01;95.49
52469;BME280;38381;53.688;10.776;2022-10-17T18:52:11;101893.47;;;17.02;95.34
52469;BME280;38381;53.688;10.776;2022-10-17T18:57:12;101897.00;;;17.02;94.89
52469;BME280;38381;53.688;10.776;2022-10-17T19:02:12;101896.13;;;16.93;95.83
52469;BME280;38381;53.688;10.776;2022-10-17T19:07:13;101911.88;;;16.94;95.36
52469;BME280;38381;53.688;10.776;2022-10-17T19:12:13;101914.47;;;16.96;95.62
52469;BME280;38381;53.688;10.776;2022-10-17T19:17:14;101911.84;;;17.05;95.03
52469;BME280;38381;53.688;10.776;2022-10-17T19:22:14;101922.34;;;17.00;95.06
52469;BME280;38381;53.688;10.776;2022-10-17T19:27:15;101924.06;;;16.87;96.28
52469;BME280;38381;53.688;10.776;2022-10-17T19:32:15;101923.22;;;16.90;96.05
52469;BME280;38381;53.688;10.776;2022-10-17T19:37:16;101931.97;;;16.92;96.43
52469;BME280;38381;53.688;10.776;2022-10-17T19:42:16;101930.19;;;17.03;96.04
52469;BME280;38381;53.688;10.776;2022-10-17T19:47:17;101928.44;;;16.99;96.50
52469;BME280;38381;53.688;10.776;2022-10-17T19:52:17;101923.22;;;16.88;96.23
52469;BME280;38381;53.688;10.776;2022-10-17T19:57:17;101929.31;;;16.83;95.86
52469;BME280;38381;53.688;10.776;2022-10-17T20:02:18;101925.84;;;16.81;95.23
52469;BME280;38381;53.688;10.776;2022-10-17T20:07:18;101925.84;;;16.81;94.86
52469;BME280;38381;53.688;10.776;2022-10-17T20:12:19;101932.81;;;16.91;94.31
52469;BME280;38381;53.688;10.776;2022-10-17T20:17:19;101943.28;;;16.69;96.00
52469;BME280;38381;53.688;10.776;2022-10-17T20:22:20;101952.88;;;16.60;97.28
52469;BME280;38381;53.688;10.776;2022-10-17T20:27:20;101975.59;;;16.72;96.42
52469;BME280;38381;53.688;10.776;2022-10-17T20:32:21;101972.09;;;16.71;96.52
52469;BME280;38381;53.688;10.776;2022-10-17T20:37:22;101970.34;;;16.64;96.53
52469;BME280;38381;53.688;10.776;2022-10-17T20:42:25;101993.91;;;16.62;96.05
52469;BME280;38381;53.688;10.776;2022-10-17T20:47:25;102000.03;;;16.60;95.80
52469;BME280;38381;53.688;10.776;2022-10-17T20:52:26;102015.75;;;16.55;95.86
52469;BME280;38381;53.688;10.776;2022-10-17T20:57:26;102020.09;;;16.55;95.62
52469;BME280;38381;53.688;10.776;2022-10-17T21:02:26;102014.84;;;16.47;95.57
52469;BME280;38381;53.688;10.776;2022-10-17T21:07:27;102038.41;;;16.44;95.22
52469;BME280;38381;53.688;10.776;2022-10-17T21:12:27;102045.34;;;16.36;94.98
52469;BME280;38381;53.688;10.776;2022-10-17T21:17:28;102041.03;;;16.41;94.22
52469;BME280;38381;53.688;10.776;2022-10-17T21:22:28;102057.56;;;16.31;94.24
52469;BME280;38381;53.688;10.776;2022-10-17T21:27:29;102063.63;;;16.23;94.53
52469;BME280;38381;53.688;10.776;2022-10-17T21:32:29;102064.50;;;16.19;93.82
52469;BME280;38381;53.688;10.776;2022-10-17T21:37:30;102042.69;;;16.14;93.76
52469;BME280;38381;53.688;10.776;2022-10-17T21:42:30;102061.84;;;16.10;92.87
52469;BME280;38381;53.688;10.776;2022-10-17T21:47:31;102058.31;;;16.05;93.35
52469;BME280;38381;53.688;10.776;2022-10-17T21:52:31;102060.91;;;15.97;92.84
52469;BME280;38381;53.688;10.776;2022-10-17T21:57:32;102064.34;;;15.88;92.24
52469;BME280;38381;53.688;10.776;2022-10-17T22:02:32;102054.69;;;15.78;91.61
52469;BME280;38381;53.688;10.776;2022-10-17T22:07:33;102058.09;;;15.68;91.66
52469;BME280;38381;53.688;10.776;2022-10-17T22:12:33;102064.16;;;15.62;91.35
52469;BME280;38381;53.688;10.776;2022-10-17T22:17:34;102066.72;;;15.56;91.25
52469;BME280;38381;53.688;10.776;2022-10-17T22:22:34;102069.31;;;15.52;91.51
52469;BME280;38381;53.688;10.776;2022-10-17T22:27:34;102064.91;;;15.41;91.80
52469;BME280;38381;53.688;10.776;2022-10-17T22:32:35;102064.84;;;15.32;91.81
52469;BME280;38381;53.688;10.776;2022-10-17T22:37:35;102064.81;;;15.29;91.82
52469;BME280;38381;53.688;10.776;2022-10-17T22:42:36;102083.03;;;15.21;92.39
52469;BME280;38381;53.688;10.776;2022-10-17T22:47:36;102067.34;;;15.18;92.07
52469;BME280;38381;53.688;10.776;2022-10-17T22:52:37;102066.41;;;15.12;92.27
52469;BME280;38381;53.688;10.776;2022-10-17T22:57:37;102071.59;;;15.08;92.62
52469;BME280;38381;53.688;10.776;2022-10-17T23:02:38;102074.19;;;15.04;92.37
52469;BME280;38381;53.688;10.776;2022-10-17T23:07:39;102078.59;;;15.09;91.56
52469;BME280;38381;53.688;10.776;2022-10-17T23:12:39;102081.09;;;14.99;92.49
52469;BME280;38381;53.688;10.776;2022-10-17T23:17:40;102088.03;;;14.97;91.83
52469;BME280;38381;53.688;10.776;2022-10-17T23:22:40;102080.16;;;14.89;92.99
52469;BME280;38381;53.688;10.776;2022-10-17T23:27:41;102083.59;;;14.85;93.02
52469;BME280;38381;53.688;10.776;2022-10-17T23:32:41;102091.41;;;14.86;93.26
52469;BME280;38381;53.688;10.776;2022-10-17T23:37:42;102081.88;;;14.87;93.00
52469;BME280;38381;53.688;10.776;2022-10-17T23:42:43;102091.38;;;14.79;94.02
52469;BME280;38381;53.688;10.776;2022-10-17T23:47:44;102095.69;;;14.78;94.03
52469;BME280;38381;53.688;10.776;2022-10-17T23:52:44;102094.00;;;14.82;94.59
52469;BME280;38381;53.688;10.776;2022-10-17T23:57:45;102093.03;;;14.74;95.07
